Aviation Digital Data Service (ADDS)

Output produced by METARs form (0620 UTC 26 April 2015)
found at http://aviationweather.gov/adds/metars/
 
KCON 260520Z 2606/2706 31007KT P6SM SCT050 BKN100